sensor_id;sensor_type;location;lat;lon;timestamp;pressure;altitude;pressure_sealevel;temperature;humidity
43553;BME280;29153;42.696;23.218;2023-05-02T00:00:00;94759.68;;;6.90;100.00
43553;BME280;29153;42.696;23.218;2023-05-02T00:02:29;94767.63;;;6.93;100.00
43553;BME280;29153;42.696;23.218;2023-05-02T00:04:56;94753.31;;;6.86;100.00
43553;BME280;29153;42.696;23.218;2023-05-02T00:07:24;94765.86;;;6.79;100.00
43553;BME280;29153;42.696;23.218;2023-05-02T00:09:52;94761.66;;;6.80;100.00
43553;BME280;29153;42.696;23.218;2023-05-02T00:12:20;94764.48;;;6.74;100.00
43553;BME280;29153;42.696;23.218;2023-05-02T00:14:48;94757.54;;;6.68;100.00
43553;BME280;29153;42.696;23.218;2023-05-02T00:17:19;94752.25;;;6.65;100.00
43553;BME280;29153;42.696;23.218;2023-05-02T00:19:47;94760.22;;;6.70;100.00
43553;BME280;29153;42.696;23.218;2023-05-02T00:22:14;94765.34;;;6.60;100.00
43553;BME280;29153;42.696;23.218;2023-05-02T00:24:42;94768.25;;;6.61;100.00
43553;BME280;29153;42.696;23.218;2023-05-02T00:27:10;94766.63;;;6.58;100.00
43553;BME280;29153;42.696;23.218;2023-05-02T00:29:37;94768.67;;;6.53;100.00
43553;BME280;29153;42.696;23.218;2023-05-02T00:32:05;94772.11;;;6.54;100.00
43553;BME280;29153;42.696;23.218;2023-05-02T00:34:33;94779.51;;;6.57;100.00
43553;BME280;29153;42.696;23.218;2023-05-02T00:37:00;94784.38;;;6.48;100.00
43553;BME280;29153;42.696;23.218;2023-05-02T00:39:28;94783.88;;;6.49;100.00
43553;BME280;29153;42.696;23.218;2023-05-02T00:41:59;94783.30;;;6.47;100.00
43553;BME280;29153;42.696;23.218;2023-05-02T00:44:27;94779.69;;;6.50;100.00
43553;BME280;29153;42.696;23.218;2023-05-02T00:46:55;94786.52;;;6.51;100.00
43553;BME280;29153;42.696;23.218;2023-05-02T00:49:23;94787.61;;;6.53;100.00
43553;BME280;29153;42.696;23.218;2023-05-02T00:51:52;94791.60;;;6.38;100.00
43553;BME280;29153;42.696;23.218;2023-05-02T00:54:19;94789.38;;;6.30;100.00
43553;BME280;29153;42.696;23.218;2023-05-02T00:56:47;94796.04;;;6.35;100.00
43553;BME280;29153;42.696;23.218;2023-05-02T00:59:15;94795.41;;;6.28;100.00
43553;BME280;29153;42.696;23.218;2023-05-02T01:07:29;94784.69;;;6.32;100.00
43553;BME280;29153;42.696;23.218;2023-05-02T01:12:42;94780.94;;;6.28;100.00
43553;BME280;29153;42.696;23.218;2023-05-02T01:15:09;94773.65;;;6.33;100.00
43553;BME280;29153;42.696;23.218;2023-05-02T01:17:38;94776.30;;;6.35;100.00
43553;BME280;29153;42.696;23.218;2023-05-02T01:20:10;94772.84;;;6.32;100.00
43553;BME280;29153;42.696;23.218;2023-05-02T01:22:38;94767.50;;;6.27;100.00
43553;BME280;29153;42.696;23.218;2023-05-02T01:25:28;94769.11;;;6.28;100.00
43553;BME280;29153;42.696;23.218;2023-05-02T01:30:45;94756.47;;;6.28;100.00
43553;BME280;29153;42.696;23.218;2023-05-02T01:33:17;94759.90;;;6.28;100.00
43553;BME280;29153;42.696;23.218;2023-05-02T01:35:46;94766.48;;;6.28;100.00
43553;BME280;29153;42.696;23.218;2023-05-02T01:38:17;94769.62;;;6.28;100.00
43553;BME280;29153;42.696;23.218;2023-05-02T01:40:46;94771.78;;;6.33;100.00
43553;BME280;29153;42.696;23.218;2023-05-02T01:43:16;94769.94;;;6.31;100.00
43553;BME280;29153;42.696;23.218;2023-05-02T01:45:47;94773.31;;;6.29;100.00
43553;BME280;29153;42.696;23.218;2023-05-02T01:48:17;94772.28;;;6.30;100.00
43553;BME280;29153;42.696;23.218;2023-05-02T01:50:47;94781.14;;;6.24;100.00
43553;BME280;29153;42.696;23.218;2023-05-02T01:53:16;94770.96;;;6.30;100.00
43553;BME280;29153;42.696;23.218;2023-05-02T01:55:45;94777.11;;;6.36;100.00
43553;BME280;29153;42.696;23.218;2023-05-02T01:58:14;94772.77;;;6.47;100.00
43553;BME280;29153;42.696;23.218;2023-05-02T02:00:43;94766.69;;;6.44;100.00
43553;BME280;29153;42.696;23.218;2023-05-02T02:03:11;94776.10;;;6.39;100.00
43553;BME280;29153;42.696;23.218;2023-05-02T02:05:39;94773.85;;;6.29;100.00
43553;BME280;29153;42.696;23.218;2023-05-02T02:08:08;94775.60;;;6.23;100.00
43553;BME280;29153;42.696;23.218;2023-05-02T02:10:39;94780.75;;;6.16;100.00
43553;BME280;29153;42.696;23.218;2023-05-02T02:13:23;94777.52;;;6.11;100.00
43553;BME280;29153;42.696;23.218;2023-05-02T02:15:49;94769.34;;;6.10;100.00
43553;BME280;29153;42.696;23.218;2023-05-02T02:18:23;94776.43;;;6.10;100.00
43553;BME280;29153;42.696;23.218;2023-05-02T02:20:52;94772.17;;;6.06;100.00
43553;BME280;29153;42.696;23.218;2023-05-02T02:23:23;94775.83;;;6.05;100.00
43553;BME280;29153;42.696;23.218;2023-05-02T02:25:53;94780.80;;;6.04;100.00
43553;BME280;29153;42.696;23.218;2023-05-02T02:28:22;94782.98;;;6.07;100.00
43553;BME280;29153;42.696;23.218;2023-05-02T02:30:49;94779.34;;;6.11;100.00
43553;BME280;29153;42.696;23.218;2023-05-02T02:33:18;94777.95;;;6.06;100.00
43553;BME280;29153;42.696;23.218;2023-05-02T02:35:49;94780.09;;;6.09;100.00
43553;BME280;29153;42.696;23.218;2023-05-02T02:38:25;94782.89;;;6.02;100.00
43553;BME280;29153;42.696;23.218;2023-05-02T02:41:03;94783.20;;;6.06;100.00
43553;BME280;29153;42.696;23.218;2023-05-02T02:43:39;94782.31;;;6.17;100.00
43553;BME280;29153;42.696;23.218;2023-05-02T02:51:43;94789.89;;;5.97;100.00
43553;BME280;29153;42.696;23.218;2023-05-02T02:54:13;94788.29;;;5.95;100.00
43553;BME280;29153;42.696;23.218;2023-05-02T02:56:44;94796.69;;;5.95;100.00
43553;BME280;29153;42.696;23.218;2023-05-02T02:59:22;94802.40;;;5.89;100.00
43553;BME280;29153;42.696;23.218;2023-05-02T03:01:54;94798.91;;;5.86;100.00
43553;BME280;29153;42.696;23.218;2023-05-02T03:04:20;94802.95;;;5.91;100.00
43553;BME280;29153;42.696;23.218;2023-05-02T03:06:50;94804.39;;;5.85;100.00
43553;BME280;29153;42.696;23.218;2023-05-02T03:09:17;94807.50;;;5.96;100.00
43553;BME280;29153;42.696;23.218;2023-05-02T03:11:45;94807.75;;;5.94;100.00
43553;BME280;29153;42.696;23.218;2023-05-02T03:14:12;94812.65;;;6.05;100.00
43553;BME280;29153;42.696;23.218;2023-05-02T03:16:40;94811.02;;;6.02;100.00
43553;BME280;29153;42.696;23.218;2023-05-02T03:19:08;94809.09;;;5.97;100.00
43553;BME280;29153;42.696;23.218;2023-05-02T03:21:36;94814.55;;;5.93;100.00
43553;BME280;29153;42.696;23.218;2023-05-02T03:24:04;94814.64;;;5.98;100.00
43553;BME280;29153;42.696;23.218;2023-05-02T03:26:31;94816.11;;;6.08;100.00
43553;BME280;29153;42.696;23.218;2023-05-02T03:28:59;94823.08;;;6.00;100.00
43553;BME280;29153;42.696;23.218;2023-05-02T03:31:27;94823.59;;;6.00;100.00
43553;BME280;29153;42.696;23.218;2023-05-02T03:33:54;94821.85;;;6.05;100.00
43553;BME280;29153;42.696;23.218;2023-05-02T03:36:22;94820.35;;;5.95;100.00
43553;BME280;29153;42.696;23.218;2023-05-02T03:38:50;94823.84;;;5.98;100.00
43553;BME280;29153;42.696;23.218;2023-05-02T03:41:17;94823.88;;;6.01;100.00
43553;BME280;29153;42.696;23.218;2023-05-02T03:43:46;94823.13;;;6.03;100.00
43553;BME280;29153;42.696;23.218;2023-05-02T03:46:13;94825.98;;;6.15;100.00
43553;BME280;29153;42.696;23.218;2023-05-02T03:48:41;94828.15;;;6.21;100.00
43553;BME280;29153;42.696;23.218;2023-05-02T03:51:10;94828.15;;;6.21;100.00
43553;BME280;29153;42.696;23.218;2023-05-02T03:53:38;94831.67;;;6.26;100.00
43553;BME280;29153;42.696;23.218;2023-05-02T03:56:06;94828.09;;;6.32;100.00
43553;BME280;29153;42.696;23.218;2023-05-02T03:58:34;94834.47;;;6.36;100.00
43553;BME280;29153;42.696;23.218;2023-05-02T04:01:02;94836.21;;;6.48;100.00
43553;BME280;29153;42.696;23.218;2023-05-02T04:03:30;94827.91;;;6.56;100.00
43553;BME280;29153;42.696;23.218;2023-05-02T04:05:57;94832.66;;;6.56;100.00
43553;BME280;29153;42.696;23.218;2023-05-02T04:08:24;94831.50;;;6.66;100.00
43553;BME280;29153;42.696;23.218;2023-05-02T04:10:52;94835.19;;;6.68;100.00
43553;BME280;29153;42.696;23.218;2023-05-02T04:13:20;94837.67;;;6.74;100.00
43553;BME280;29153;42.696;23.218;2023-05-02T04:15:47;94833.37;;;7.07;100.00
43553;BME280;29153;42.696;23.218;2023-05-02T04:18:15;94832.05;;;7.26;100.00
43553;BME280;29153;42.696;23.218;2023-05-02T04:20:43;94831.92;;;7.38;100.00
43553;BME280;29153;42.696;23.218;2023-05-02T04:23:10;94827.81;;;7.47;100.00
43553;BME280;29153;42.696;23.218;2023-05-02T04:25:38;94831.55;;;7.51;100.00
43553;BME280;29153;42.696;23.218;2023-05-02T04:28:06;94830.59;;;7.59;100.00
43553;BME280;29153;42.696;23.218;2023-05-02T04:30:33;94832.28;;;7.70;100.00
43553;BME280;29153;42.696;23.218;2023-05-02T04:33:02;94832.13;;;7.79;100.00
43553;BME280;29153;42.696;23.218;2023-05-02T04:35:29;94831.80;;;8.00;100.00
43553;BME280;29153;42.696;23.218;2023-05-02T04:37:57;94832.59;;;8.28;100.00
43553;BME280;29153;42.696;23.218;2023-05-02T04:40:24;94838.28;;;8.44;100.00
43553;BME280;29153;42.696;23.218;2023-05-02T04:42:52;94837.19;;;8.72;100.00
43553;BME280;29153;42.696;23.218;2023-05-02T04:45:19;94833.55;;;8.80;100.00
43553;BME280;29153;42.696;23.218;2023-05-02T04:47:47;94838.88;;;8.90;100.00
43553;BME280;29153;42.696;23.218;2023-05-02T04:50:14;94841.11;;;9.06;100.00
43553;BME280;29153;42.696;23.218;2023-05-02T04:52:42;94830.91;;;9.30;100.00
43553;BME280;29153;42.696;23.218;2023-05-02T04:55:09;94832.36;;;9.60;100.00
43553;BME280;29153;42.696;23.218;2023-05-02T04:57:37;94798.84;;;9.93;100.00
43553;BME280;29153;42.696;23.218;2023-05-02T05:00:06;94830.66;;;10.14;98.97
43553;BME280;29153;42.696;23.218;2023-05-02T05:02:33;94831.77;;;10.38;98.12
43553;BME280;29153;42.696;23.218;2023-05-02T05:05:00;94835.47;;;10.49;96.19
43553;BME280;29153;42.696;23.218;2023-05-02T05:07:28;94833.61;;;10.70;94.61
43553;BME280;29153;42.696;23.218;2023-05-02T05:09:55;94832.81;;;10.85;94.32
43553;BME280;29153;42.696;23.218;2023-05-02T05:12:23;94837.84;;;10.94;92.91
43553;BME280;29153;42.696;23.218;2023-05-02T05:14:50;94836.48;;;11.12;92.63
43553;BME280;29153;42.696;23.218;2023-05-02T05:17:18;94836.14;;;11.36;90.58
43553;BME280;29153;42.696;23.218;2023-05-02T05:19:45;94844.77;;;11.69;88.56
43553;BME280;29153;42.696;23.218;2023-05-02T05:22:13;94840.45;;;11.91;87.13
43553;BME280;29153;42.696;23.218;2023-05-02T05:24:40;94847.98;;;12.23;86.98
43553;BME280;29153;42.696;23.218;2023-05-02T05:27:08;94835.36;;;12.41;85.74
43553;BME280;29153;42.696;23.218;2023-05-02T05:29:36;94835.36;;;12.41;85.74
43553;BME280;29153;42.696;23.218;2023-05-02T05:32:04;94841.08;;;12.61;84.52
43553;BME280;29153;42.696;23.218;2023-05-02T05:34:32;94842.23;;;12.81;84.88
43553;BME280;29153;42.696;23.218;2023-05-02T05:37:00;94840.30;;;12.89;83.69
43553;BME280;29153;42.696;23.218;2023-05-02T05:39:27;94849.67;;;13.39;77.39
43553;BME280;29153;42.696;23.218;2023-05-02T05:41:55;94849.67;;;13.39;77.39
43553;BME280;29153;42.696;23.218;2023-05-02T05:44:22;94855.83;;;13.85;76.56
43553;BME280;29153;42.696;23.218;2023-05-02T05:46:51;94852.92;;;14.24;75.37
43553;BME280;29153;42.696;23.218;2023-05-02T05:49:18;94861.32;;;14.87;71.57
43553;BME280;29153;42.696;23.218;2023-05-02T05:51:47;94861.32;;;14.87;71.57
43553;BME280;29153;42.696;23.218;2023-05-02T05:54:16;94858.80;;;14.77;70.91
43553;BME280;29153;42.696;23.218;2023-05-02T05:56:44;94805.19;;;14.46;71.92
43553;BME280;29153;42.696;23.218;2023-05-02T05:59:11;94858.80;;;14.77;71.48
43553;BME280;29153;42.696;23.218;2023-05-02T06:01:39;94865.58;;;15.04;71.56
43553;BME280;29153;42.696;23.218;2023-05-02T06:04:07;94876.12;;;14.95;69.24
43553;BME280;29153;42.696;23.218;2023-05-02T06:06:34;94874.58;;;15.08;70.34
43553;BME280;29153;42.696;23.218;2023-05-02T06:09:02;94878.72;;;15.00;67.28
43553;BME280;29153;42.696;23.218;2023-05-02T06:11:30;94874.99;;;14.99;67.70
43553;BME280;29153;42.696;23.218;2023-05-02T06:13:57;94874.99;;;14.99;67.70
43553;BME280;29153;42.696;23.218;2023-05-02T06:16:25;94879.91;;;15.08;66.83
43553;BME280;29153;42.696;23.218;2023-05-02T06:18:52;94874.30;;;15.23;65.93
43553;BME280;29153;42.696;23.218;2023-05-02T06:21:20;94875.92;;;14.92;65.51
43553;BME280;29153;42.696;23.218;2023-05-02T06:23:47;94866.45;;;14.99;65.99
43553;BME280;29153;42.696;23.218;2023-05-02T06:26:15;94869.53;;;15.36;65.60
43553;BME280;29153;42.696;23.218;2023-05-02T06:28:42;94867.38;;;15.55;65.27
43553;BME280;29153;42.696;23.218;2023-05-02T06:31:09;94873.10;;;15.62;63.55
43553;BME280;29153;42.696;23.218;2023-05-02T06:33:37;94874.42;;;15.48;63.56
43553;BME280;29153;42.696;23.218;2023-05-02T06:36:04;94877.80;;;15.54;63.90
43553;BME280;29153;42.696;23.218;2023-05-02T06:38:32;94877.71;;;15.59;63.17
43553;BME280;29153;42.696;23.218;2023-05-02T06:40:59;94876.66;;;15.11;62.31
43553;BME280;29153;42.696;23.218;2023-05-02T06:43:27;94874.30;;;15.23;63.97
43553;BME280;29153;42.696;23.218;2023-05-02T06:45:55;94877.60;;;15.34;63.00
43553;BME280;29153;42.696;23.218;2023-05-02T06:48:22;94878.11;;;15.20;63.31
43553;BME280;29153;42.696;23.218;2023-05-02T06:50:51;94880.47;;;15.37;62.05
43553;BME280;29153;42.696;23.218;2023-05-02T06:53:19;94880.30;;;15.47;62.31
43553;BME280;29153;42.696;23.218;2023-05-02T06:55:48;94878.99;;;15.45;61.45
43553;BME280;29153;42.696;23.218;2023-05-02T06:58:16;94876.03;;;15.63;61.13
43553;BME280;29153;42.696;23.218;2023-05-02T07:00:43;94872.77;;;15.79;61.63
43553;BME280;29153;42.696;23.218;2023-05-02T07:03:11;94875.95;;;15.95;62.55
43553;BME280;29153;42.696;23.218;2023-05-02T07:05:38;94883.96;;;16.09;60.25
43553;BME280;29153;42.696;23.218;2023-05-02T07:08:06;94882.56;;;16.11;60.34
43553;BME280;29153;42.696;23.218;2023-05-02T07:10:33;94886.64;;;16.33;58.99
43553;BME280;29153;42.696;23.218;2023-05-02T07:13:01;94877.26;;;16.47;58.47
43553;BME280;29153;42.696;23.218;2023-05-02T07:15:29;94844.52;;;16.39;59.81
43553;BME280;29153;42.696;23.218;2023-05-02T07:17:56;94892.69;;;16.64;56.79
43553;BME280;29153;42.696;23.218;2023-05-02T07:20:24;94891.83;;;16.66;56.93
43553;BME280;29153;42.696;23.218;2023-05-02T07:22:51;94881.95;;;17.11;57.37
43553;BME280;29153;42.696;23.218;2023-05-02T07:25:19;94895.50;;;17.37;57.14
43553;BME280;29153;42.696;23.218;2023-05-02T07:27:46;94894.26;;;17.54;53.98
43553;BME280;29153;42.696;23.218;2023-05-02T07:30:13;94886.59;;;18.00;53.60
43553;BME280;29153;42.696;23.218;2023-05-02T07:32:41;94889.22;;;18.11;52.37
43553;BME280;29153;42.696;23.218;2023-05-02T07:35:08;94836.11;;;18.31;56.56
43553;BME280;29153;42.696;23.218;2023-05-02T07:37:36;94893.13;;;18.96;50.03
43553;BME280;29153;42.696;23.218;2023-05-02T07:40:04;94888.10;;;18.95;48.75
43553;BME280;29153;42.696;23.218;2023-05-02T07:42:33;94893.75;;;19.28;50.23
43553;BME280;29153;42.696;23.218;2023-05-02T07:45:01;94895.64;;;19.44;46.86
43553;BME280;29153;42.696;23.218;2023-05-02T07:47:29;94899.19;;;19.74;48.77
43553;BME280;29153;42.696;23.218;2023-05-02T07:49:56;94900.33;;;19.88;47.54
43553;BME280;29153;42.696;23.218;2023-05-02T07:52:24;94894.66;;;20.19;48.81
43553;BME280;29153;42.696;23.218;2023-05-02T07:54:52;94900.80;;;20.28;44.34
43553;BME280;29153;42.696;23.218;2023-05-02T07:57:20;94892.93;;;20.58;43.00
43553;BME280;29153;42.696;23.218;2023-05-02T07:59:47;94884.05;;;20.37;47.77
43553;BME280;29153;42.696;23.218;2023-05-02T08:02:14;94886.78;;;20.58;43.65
43553;BME280;29153;42.696;23.218;2023-05-02T08:04:44;94887.16;;;20.48;42.89
43553;BME280;29153;42.696;23.218;2023-05-02T08:07:11;94887.57;;;21.00;43.40
43553;BME280;29153;42.696;23.218;2023-05-02T08:09:38;94881.95;;;21.19;43.91
43553;BME280;29153;42.696;23.218;2023-05-02T08:12:06;94885.25;;;20.83;43.55
43553;BME280;29153;42.696;23.218;2023-05-02T08:14:33;94877.52;;;21.09;44.19
43553;BME280;29153;42.696;23.218;2023-05-02T08:17:01;94878.56;;;21.49;44.52
43553;BME280;29153;42.696;23.218;2023-05-02T08:19:28;94882.42;;;21.60;41.11
43553;BME280;29153;42.696;23.218;2023-05-02T08:21:55;94880.84;;;21.59;44.18
43553;BME280;29153;42.696;23.218;2023-05-02T08:24:23;94879.07;;;21.75;41.33
43553;BME280;29153;42.696;23.218;2023-05-02T08:26:50;94881.99;;;21.83;40.84
43553;BME280;29153;42.696;23.218;2023-05-02T08:29:18;94875.59;;;21.87;40.58
43553;BME280;29153;42.696;23.218;2023-05-02T08:31:45;94877.12;;;22.03;39.50
43553;BME280;29153;42.696;23.218;2023-05-02T08:34:13;94873.73;;;21.94;40.45
43553;BME280;29153;42.696;23.218;2023-05-02T08:36:41;94871.67;;;21.85;40.52
43553;BME280;29153;42.696;23.218;2023-05-02T08:39:08;94866.78;;;22.29;42.21
43553;BME280;29153;42.696;23.218;2023-05-02T08:41:37;94881.23;;;22.55;39.51
43553;BME280;29153;42.696;23.218;2023-05-02T08:44:04;94878.19;;;21.77;38.31
43553;BME280;29153;42.696;23.218;2023-05-02T08:46:34;94877.05;;;21.91;41.77
43553;BME280;29153;42.696;23.218;2023-05-02T08:49:03;94875.91;;;21.67;39.37
43553;BME280;29153;42.696;23.218;2023-05-02T08:51:32;94864.80;;;21.75;41.16
43553;BME280;29153;42.696;23.218;2023-05-02T08:54:01;94870.83;;;21.99;41.94
43553;BME280;29153;42.696;23.218;2023-05-02T08:56:29;94868.41;;;21.85;42.34
43553;BME280;29153;42.696;23.218;2023-05-02T08:58:57;94869.41;;;21.68;39.06
43553;BME280;29153;42.696;23.218;2023-05-02T09:01:27;94857.77;;;22.19;45.11
43553;BME280;29153;42.696;23.218;2023-05-02T09:03:55;94867.44;;;22.02;38.76
43553;BME280;29153;42.696;23.218;2023-05-02T09:06:25;94866.08;;;22.08;39.16
43553;BME280;29153;42.696;23.218;2023-05-02T09:08:54;94860.22;;;21.82;39.55
43553;BME280;29153;42.696;23.218;2023-05-02T09:11:23;94860.66;;;21.26;39.97
43553;BME280;29153;42.696;23.218;2023-05-02T09:13:51;94847.68;;;21.47;43.27
43553;BME280;29153;42.696;23.218;2023-05-02T09:16:20;94864.98;;;21.13;39.85
43553;BME280;29153;42.696;23.218;2023-05-02T09:18:52;94860.75;;;20.41;41.88
43553;BME280;29153;42.696;23.218;2023-05-02T09:21:25;94856.32;;;20.30;40.70
43553;BME280;29153;42.696;23.218;2023-05-02T09:23:55;94852.66;;;19.82;42.48
43553;BME280;29153;42.696;23.218;2023-05-02T09:26:25;94853.89;;;19.47;44.21
43553;BME280;29153;42.696;23.218;2023-05-02T09:29:01;94850.45;;;19.84;45.24
43553;BME280;29153;42.696;23.218;2023-05-02T09:31:34;94854.90;;;19.80;43.83
43553;BME280;29153;42.696;23.218;2023-05-02T09:34:16;94852.55;;;19.93;42.39
43553;BME280;29153;42.696;23.218;2023-05-02T09:36:46;94845.94;;;19.82;42.24
43553;BME280;29153;42.696;23.218;2023-05-02T09:39:19;94842.47;;;20.26;41.89
43553;BME280;29153;42.696;23.218;2023-05-02T09:41:47;94848.13;;;20.48;41.71
43553;BME280;29153;42.696;23.218;2023-05-02T09:44:21;94846.08;;;20.15;41.06
43553;BME280;29153;42.696;23.218;2023-05-02T09:46:49;94840.23;;;20.36;42.47
43553;BME280;29153;42.696;23.218;2023-05-02T09:49:17;94843.66;;;20.31;41.27
43553;BME280;29153;42.696;23.218;2023-05-02T09:51:46;94841.59;;;20.42;42.16
43553;BME280;29153;42.696;23.218;2023-05-02T09:54:36;94834.73;;;20.39;45.93
43553;BME280;29153;42.696;23.218;2023-05-02T09:56:53;94838.84;;;20.51;44.66
43553;BME280;29153;42.696;23.218;2023-05-02T09:59:23;94839.09;;;20.23;41.40
43553;BME280;29153;42.696;23.218;2023-05-02T10:01:58;94836.08;;;20.39;40.73
43553;BME280;29153;42.696;23.218;2023-05-02T10:04:27;94833.45;;;20.51;42.06
43553;BME280;29153;42.696;23.218;2023-05-02T10:06:56;94833.23;;;20.98;44.28
43553;BME280;29153;42.696;23.218;2023-05-02T10:09:25;94833.01;;;21.23;41.52
43553;BME280;29153;42.696;23.218;2023-05-02T10:11:55;94825.27;;;21.28;41.07
43553;BME280;29153;42.696;23.218;2023-05-02T10:14:24;94828.34;;;21.45;37.50
43553;BME280;29153;42.696;23.218;2023-05-02T10:17:15;94822.60;;;21.40;37.21
43553;BME280;29153;42.696;23.218;2023-05-02T10:22:22;94819.61;;;21.48;37.66
43553;BME280;29153;42.696;23.218;2023-05-02T10:24:50;94819.95;;;21.58;37.37
43553;BME280;29153;42.696;23.218;2023-05-02T10:27:19;94815.88;;;21.52;36.05
43553;BME280;29153;42.696;23.218;2023-05-02T10:29:47;94812.52;;;21.43;37.77
43553;BME280;29153;42.696;23.218;2023-05-02T10:32:16;94801.89;;;20.87;37.08
43553;BME280;29153;42.696;23.218;2023-05-02T10:34:45;94804.67;;;20.84;38.93
43553;BME280;29153;42.696;23.218;2023-05-02T10:37:15;94798.17;;;20.85;38.54
43553;BME280;29153;42.696;23.218;2023-05-02T10:39:43;94807.20;;;21.02;37.68
43553;BME280;29153;42.696;23.218;2023-05-02T10:42:10;94792.19;;;21.07;41.09
43553;BME280;29153;42.696;23.218;2023-05-02T10:44:40;94797.98;;;20.97;36.66
43553;BME280;29153;42.696;23.218;2023-05-02T10:47:26;94743.95;;;20.48;36.56
43553;BME280;29153;42.696;23.218;2023-05-02T10:49:56;94801.70;;;20.71;37.72
43553;BME280;29153;42.696;23.218;2023-05-02T10:52:34;94790.25;;;20.68;36.54
43553;BME280;29153;42.696;23.218;2023-05-02T10:55:14;94795.44;;;20.73;37.37
43553;BME280;29153;42.696;23.218;2023-05-02T11:00:29;94791.67;;;20.60;35.69
43553;BME280;29153;42.696;23.218;2023-05-02T11:02:57;94788.69;;;20.47;36.57
43553;BME280;29153;42.696;23.218;2023-05-02T11:05:26;94792.27;;;20.71;38.03
43553;BME280;29153;42.696;23.218;2023-05-02T11:10:44;94788.31;;;20.89;37.22
43553;BME280;29153;42.696;23.218;2023-05-02T11:13:11;94786.52;;;20.87;39.78
43553;BME280;29153;42.696;23.218;2023-05-02T11:18:13;94775.59;;;20.78;37.23
43553;BME280;29153;42.696;23.218;2023-05-02T11:20:42;94781.81;;;20.90;36.77
43553;BME280;29153;42.696;23.218;2023-05-02T11:25:52;94767.88;;;20.88;36.20
43553;BME280;29153;42.696;23.218;2023-05-02T11:31:51;94764.19;;;20.93;36.01
43553;BME280;29153;42.696;23.218;2023-05-02T11:33:34;94763.44;;;20.66;36.38
43553;BME280;29153;42.696;23.218;2023-05-02T11:36:01;94753.41;;;20.93;38.64
43553;BME280;29153;42.696;23.218;2023-05-02T11:38:39;94749.69;;;21.12;35.84
43553;BME280;29153;42.696;23.218;2023-05-02T11:41:04;94681.70;;;20.88;37.84
43553;BME280;29153;42.696;23.218;2023-05-02T11:43:31;94750.48;;;21.31;35.24
43553;BME280;29153;42.696;23.218;2023-05-02T11:46:00;94744.55;;;21.25;36.07
43553;BME280;29153;42.696;23.218;2023-05-02T11:48:28;94749.83;;;21.52;35.58
43553;BME280;29153;42.696;23.218;2023-05-02T11:50:58;94735.59;;;21.64;36.00
43553;BME280;29153;42.696;23.218;2023-05-02T11:53:30;94727.48;;;21.58;35.50
43553;BME280;29153;42.696;23.218;2023-05-02T11:56:03;94724.56;;;21.81;36.05
43553;BME280;29153;42.696;23.218;2023-05-02T11:58:31;94669.31;;;21.32;35.35
43553;BME280;29153;42.696;23.218;2023-05-02T12:01:13;94729.27;;;21.84;34.26
43553;BME280;29153;42.696;23.218;2023-05-02T12:03:43;94720.41;;;21.77;35.69
43553;BME280;29153;42.696;23.218;2023-05-02T12:06:16;94719.37;;;22.06;35.29
43553;BME280;29153;42.696;23.218;2023-05-02T12:08:46;94712.45;;;21.69;35.09
43553;BME280;29153;42.696;23.218;2023-05-02T12:11:15;94710.39;;;21.78;36.89
43553;BME280;29153;42.696;23.218;2023-05-02T12:13:47;94697.05;;;21.63;36.21
43553;BME280;29153;42.696;23.218;2023-05-02T12:16:16;94704.91;;;21.62;36.00
43553;BME280;29153;42.696;23.218;2023-05-02T12:18:44;94695.49;;;21.56;36.51
43553;BME280;29153;42.696;23.218;2023-05-02T12:21:13;94688.41;;;21.33;37.99
43553;BME280;29153;42.696;23.218;2023-05-02T12:23:41;94692.55;;;21.31;37.78
43553;BME280;29153;42.696;23.218;2023-05-02T12:26:21;94689.76;;;21.21;37.23
43553;BME280;29153;42.696;23.218;2023-05-02T12:28:52;94679.59;;;21.06;36.81
43553;BME280;29153;42.696;23.218;2023-05-02T12:31:24;94683.83;;;20.89;36.53
43553;BME280;29153;42.696;23.218;2023-05-02T12:33:55;94668.59;;;20.87;38.14
43553;BME280;29153;42.696;23.218;2023-05-02T12:36:25;94673.17;;;20.93;36.56
43553;BME280;29153;42.696;23.218;2023-05-02T12:38:55;94673.17;;;20.93;37.33
43553;BME280;29153;42.696;23.218;2023-05-02T12:41:31;94668.77;;;20.76;37.05
43553;BME280;29153;42.696;23.218;2023-05-02T12:43:59;94655.33;;;20.88;39.13
43553;BME280;29153;42.696;23.218;2023-05-02T12:46:27;94652.09;;;20.95;37.18
43553;BME280;29153;42.696;23.218;2023-05-02T12:49:08;94649.46;;;19.46;53.68
43553;BME280;29153;42.696;23.218;2023-05-02T12:51:38;94643.17;;;18.49;60.63
43553;BME280;29153;42.696;23.218;2023-05-02T12:54:06;94636.56;;;17.89;53.98
43553;BME280;29153;42.696;23.218;2023-05-02T12:56:40;94636.41;;;17.77;49.14
43553;BME280;29153;42.696;23.218;2023-05-02T12:59:32;94636.50;;;17.74;50.73
43553;BME280;29153;42.696;23.218;2023-05-02T13:01:40;94635.86;;;17.77;51.47
43553;BME280;29153;42.696;23.218;2023-05-02T13:04:07;94644.04;;;18.06;51.61
43553;BME280;29153;42.696;23.218;2023-05-02T13:06:35;94630.48;;;18.11;51.74
43553;BME280;29153;42.696;23.218;2023-05-02T13:09:03;94621.73;;;18.17;46.80
43553;BME280;29153;42.696;23.218;2023-05-02T13:11:30;94619.16;;;18.38;47.34
43553;BME280;29153;42.696;23.218;2023-05-02T13:13:58;94625.36;;;18.53;47.07
43553;BME280;29153;42.696;23.218;2023-05-02T13:16:27;94624.71;;;18.64;43.28
43553;BME280;29153;42.696;23.218;2023-05-02T13:18:54;94632.66;;;18.67;41.97
43553;BME280;29153;42.696;23.218;2023-05-02T13:21:22;94629.84;;;18.63;42.44
43553;BME280;29153;42.696;23.218;2023-05-02T13:23:49;94626.23;;;18.74;42.23
43553;BME280;29153;42.696;23.218;2023-05-02T13:26:18;94620.00;;;18.76;46.50
43553;BME280;29153;42.696;23.218;2023-05-02T13:28:46;94613.95;;;18.88;46.07
43553;BME280;29153;42.696;23.218;2023-05-02T13:31:13;94617.16;;;19.10;43.63